createdAt,value
2022-09-21T00:02:03.091Z,100.00
2022-09-21T00:07:05.530Z,100.00
2022-09-21T00:12:07.759Z,100.00
2022-09-21T00:17:10.007Z,100.00
2022-09-21T00:22:12.088Z,100.00
2022-09-21T00:27:14.136Z,100.00
2022-09-21T00:32:17.256Z,100.00
2022-09-21T00:37:20.626Z,100.00
2022-09-21T00:42:29.438Z,100.00
2022-09-21T00:47:37.371Z,100.00
2022-09-21T00:52:45.258Z,100.00
2022-09-21T00:57:52.045Z,100.00
2022-09-21T01:03:01.503Z,100.00
2022-09-21T01:08:08.201Z,100.00
2022-09-21T01:13:39.208Z,100.00
2022-09-21T01:18:52.004Z,100.00
2022-09-21T01:24:12.533Z,100.00
2022-09-21T01:29:35.325Z,100.00
2022-09-21T01:35:11.139Z,100.00
2022-09-21T01:40:32.014Z,100.00
2022-09-21T01:45:41.309Z,100.00
2022-09-21T01:50:52.012Z,100.00
2022-09-21T01:55:58.420Z,100.00
2022-09-21T02:01:01.415Z,100.00
2022-09-21T02:06:06.252Z,100.00
2022-09-21T02:11:12.950Z,100.00
2022-09-21T02:17:02.984Z,100.00
2022-09-21T02:22:16.092Z,100.00
2022-09-21T02:27:25.313Z,100.00
2022-09-21T02:32:53.292Z,100.00
2022-09-21T02:38:09.550Z,100.00
2022-09-21T02:43:27.839Z,100.00
2022-09-21T02:48:38.406Z,100.00
2022-09-21T02:53:42.553Z,100.00
2022-09-21T02:58:50.061Z,100.00
2022-09-21T03:03:52.598Z,100.00
2022-09-21T03:08:54.835Z,100.00
2022-09-21T03:13:57.312Z,100.00
2022-09-21T03:18:59.369Z,100.00
2022-09-21T03:24:01.882Z,100.00
2022-09-21T03:29:04.468Z,100.00
2022-09-21T03:34:06.526Z,100.00
2022-09-21T03:39:08.706Z,100.00
2022-09-21T03:44:11.005Z,100.00
2022-09-21T03:49:13.388Z,100.00
2022-09-21T03:54:15.466Z,100.00
2022-09-21T03:59:17.841Z,100.00
2022-09-21T04:04:20.564Z,100.00
2022-09-21T04:09:22.696Z,100.00
2022-09-21T04:14:25.126Z,100.00
2022-09-21T04:19:27.174Z,100.00
2022-09-21T04:24:31.182Z,100.00
2022-09-21T04:29:33.543Z,100.00
2022-09-21T04:34:36.543Z,100.00
2022-09-21T04:39:39.185Z,100.00
2022-09-21T04:44:41.626Z,100.00
2022-09-21T04:49:43.775Z,100.00
2022-09-21T04:54:46.693Z,100.00
2022-09-21T04:59:48.726Z,100.00
2022-09-21T05:04:51.212Z,100.00
2022-09-21T05:10:05.433Z,100.00
2022-09-21T05:15:08.548Z,100.00
2022-09-21T05:20:11.959Z,100.00
2022-09-21T05:25:14.447Z,100.00
2022-09-21T05:30:16.994Z,100.00
2022-09-21T05:35:32.230Z,100.00
2022-09-21T05:40:35.197Z,100.00
2022-09-21T05:46:03.710Z,100.00
2022-09-21T05:51:12.931Z,100.00
2022-09-21T05:56:44.239Z,100.00
2022-09-21T06:01:59.023Z,80.06
2022-09-21T06:07:01.349Z,59.39
2022-09-21T06:12:04.719Z,61.55
2022-09-21T06:17:06.831Z,67.42
2022-09-21T06:22:08.874Z,70.65
2022-09-21T06:27:11.290Z,69.31
2022-09-21T06:32:13.507Z,67.35
2022-09-21T06:37:15.605Z,71.44
2022-09-21T06:42:17.689Z,72.80
2022-09-21T06:47:20.065Z,68.33
2022-09-21T06:52:22.294Z,61.70
2022-09-21T06:57:24.399Z,63.01
2022-09-21T07:02:26.494Z,59.33
2022-09-21T07:07:32.499Z,59.37
2022-09-21T07:12:35.560Z,64.13
2022-09-21T07:17:39.936Z,67.40
2022-09-21T07:22:42.205Z,64.44
2022-09-21T07:27:44.214Z,58.81
2022-09-21T07:32:50.441Z,59.17
2022-09-21T07:37:52.562Z,58.73
2022-09-21T07:42:58.718Z,62.65
2022-09-21T07:48:08.957Z,63.33
2022-09-21T07:53:11.210Z,61.78
2022-09-21T07:58:31.803Z,62.88
2022-09-21T08:03:34.137Z,59.77
2022-09-21T08:08:36.765Z,56.42
2022-09-21T08:13:39.202Z,51.11
2022-09-21T08:18:41.907Z,51.21
2022-09-21T08:23:44.287Z,52.23
2022-09-21T08:28:53.109Z,50.72
2022-09-21T08:33:57.261Z,52.09
2022-09-21T08:38:59.589Z,50.99
2022-09-21T08:44:14.297Z,55.61
2022-09-21T08:49:27.954Z,53.75
2022-09-21T08:55:05.870Z,50.81
2022-09-21T09:00:14.896Z,49.66
2022-09-21T09:05:39.401Z,54.42
2022-09-21T09:11:05.553Z,53.15
2022-09-21T09:16:36.546Z,54.82
2022-09-21T09:21:41.941Z,53.72
2022-09-21T09:26:55.711Z,50.26
2022-09-21T09:32:00.950Z,48.41
2022-09-21T09:37:14.323Z,49.18
2022-09-21T09:42:35.273Z,48.37
2022-09-21T09:48:02.947Z,46.59
2022-09-21T09:53:16.690Z,45.73
2022-09-21T09:58:22.082Z,44.87
2022-09-21T10:03:27.237Z,42.59
2022-09-21T10:08:39.525Z,41.91
2022-09-21T10:13:50.598Z,42.51
2022-09-21T10:18:52.641Z,41.34
2022-09-21T10:23:59.642Z,42.19
2022-09-21T10:29:17.700Z,42.78
2022-09-21T10:34:20.138Z,44.82
2022-09-21T10:39:26.649Z,44.89
2022-09-21T10:44:37.957Z,45.24
2022-09-21T10:49:47.132Z,44.94
2022-09-21T10:54:52.495Z,45.69
2022-09-21T10:59:54.831Z,46.24
2022-09-21T11:05:26.925Z,46.72
2022-09-21T11:10:35.160Z,48.82
2022-09-21T11:15:49.666Z,44.88
2022-09-21T11:20:57.386Z,46.41
2022-09-21T11:26:10.949Z,46.24
2022-09-21T11:31:54.323Z,46.40
2022-09-21T11:37:19.015Z,46.49
2022-09-21T11:42:33.736Z,44.46
2022-09-21T11:48:06.268Z,43.12
2022-09-21T11:53:40.653Z,44.20
2022-09-21T11:59:17.715Z,43.73
2022-09-21T12:04:56.254Z,45.67
2022-09-21T12:10:13.936Z,44.99
2022-09-21T12:15:49.860Z,45.36
2022-09-21T12:21:04.814Z,44.37
2022-09-21T12:26:07.845Z,44.87
2022-09-21T12:31:19.032Z,47.22
2022-09-21T12:36:47.825Z,45.25
2022-09-21T12:42:05.630Z,47.05
2022-09-21T12:47:13.597Z,47.56
2022-09-21T12:52:23.766Z,50.81
2022-09-21T12:58:14.538Z,52.26
2022-09-21T13:03:44.070Z,63.33
2022-09-21T13:08:47.763Z,72.44
2022-09-21T13:14:03.832Z,73.51
2022-09-21T13:19:23.480Z,78.88
2022-09-21T13:24:31.108Z,84.81
2022-09-21T13:29:36.310Z,83.40
2022-09-21T13:34:42.932Z,82.80
2022-09-21T13:39:51.004Z,81.24
2022-09-21T13:44:53.595Z,81.19
2022-09-21T13:50:00.505Z,87.23
2022-09-21T13:55:06.652Z,86.02
2022-09-21T14:00:12.794Z,83.20
2022-09-21T14:05:33.437Z,80.57
2022-09-21T14:10:38.600Z,78.53
2022-09-21T14:15:40.917Z,75.59
2022-09-21T14:21:09.338Z,69.64
2022-09-21T14:26:34.256Z,70.67
2022-09-21T14:31:39.560Z,68.98
2022-09-21T14:36:50.347Z,69.77
2022-09-21T14:41:56.598Z,68.09
2022-09-21T14:47:28.804Z,67.19
2022-09-21T14:52:43.568Z,67.02
2022-09-21T14:58:04.433Z,65.26
2022-09-21T15:03:54.421Z,65.40
2022-09-21T15:09:24.293Z,83.63
2022-09-21T15:14:32.474Z,81.94
2022-09-21T15:19:37.772Z,69.95
2022-09-21T15:24:52.848Z,67.56
2022-09-21T15:29:56.801Z,65.76
2022-09-21T15:35:04.161Z,72.90
2022-09-21T15:40:19.347Z,85.73
2022-09-21T15:45:21.959Z,61.80
2022-09-21T15:50:25.555Z,67.20
2022-09-21T15:55:31.184Z,80.04
2022-09-21T16:00:35.522Z,77.36
2022-09-21T16:05:47.318Z,82.79
2022-09-21T16:10:50.313Z,87.26
2022-09-21T16:16:04.355Z,89.06
2022-09-21T16:21:14.485Z,88.38
2022-09-21T16:26:23.892Z,83.86
2022-09-21T16:31:31.136Z,86.82
2022-09-21T16:36:55.401Z,87.01
2022-09-21T16:42:01.773Z,86.04
2022-09-21T16:47:04.586Z,87.67
2022-09-21T16:52:07.786Z,90.01
2022-09-21T16:57:12.681Z,90.90
2022-09-21T17:02:16.053Z,94.67
2022-09-21T17:07:20.655Z,93.06
2022-09-21T17:12:24.182Z,87.83
2022-09-21T17:17:26.912Z,94.13
2022-09-21T17:22:29.265Z,94.24
2022-09-21T17:27:32.335Z,90.41
2022-09-21T17:32:38.531Z,89.31
2022-09-21T17:37:43.458Z,96.76
2022-09-21T17:42:48.611Z,98.14
2022-09-21T17:47:51.259Z,99.77
2022-09-21T17:53:13.987Z,99.11
2022-09-21T17:58:44.988Z,100.00
2022-09-21T18:03:47.955Z,100.00
2022-09-21T18:08:51.039Z,98.05
2022-09-21T18:14:22.234Z,94.27
2022-09-21T18:19:49.641Z,100.00
2022-09-21T18:24:54.561Z,98.06
2022-09-21T18:29:57.214Z,100.00
2022-09-21T18:35:28.738Z,100.00
2022-09-21T18:40:37.168Z,100.00
2022-09-21T18:45:50.475Z,100.00
2022-09-21T18:51:11.228Z,100.00
2022-09-21T18:56:14.484Z,100.00
2022-09-21T19:01:19.353Z,100.00
2022-09-21T19:06:46.691Z,100.00
2022-09-21T19:12:07.707Z,100.00
2022-09-21T19:17:39.077Z,100.00
2022-09-21T19:22:49.664Z,100.00
2022-09-21T19:28:00.839Z,100.00
2022-09-21T19:33:45.660Z,100.00
2022-09-21T19:38:42.017Z,100.00
2022-09-21T19:43:59.292Z,100.00
2022-09-21T19:49:13.799Z,100.00
2022-09-21T19:54:37.700Z,100.00
2022-09-21T19:59:43.120Z,100.00
2022-09-21T20:05:07.132Z,100.00
2022-09-21T20:10:25.315Z,100.00
2022-09-21T20:15:38.884Z,100.00
2022-09-21T20:20:42.324Z,100.00
2022-09-21T20:25:53.225Z,100.00
2022-09-21T20:30:55.399Z,100.00
2022-09-21T20:35:58.047Z,100.00
2022-09-21T20:41:00.109Z,100.00
2022-09-21T20:46:03.147Z,100.00
2022-09-21T20:51:06.379Z,100.00
2022-09-21T20:56:08.815Z,100.00
2022-09-21T21:01:11.162Z,100.00
2022-09-21T21:06:16.948Z,100.00
2022-09-21T21:11:20.616Z,100.00
2022-09-21T21:16:23.405Z,100.00
2022-09-21T21:21:26.059Z,100.00
2022-09-21T21:26:50.356Z,100.00
2022-09-21T21:31:50.936Z,100.00
2022-09-21T21:36:53.889Z,100.00
2022-09-21T21:41:56.217Z,100.00
2022-09-21T21:47:10.248Z,100.00
2022-09-21T21:52:21.496Z,100.00
2022-09-21T21:57:23.733Z,100.00
2022-09-21T22:02:25.925Z,100.00
2022-09-21T22:07:28.038Z,100.00
2022-09-21T22:12:31.713Z,100.00
2022-09-21T22:17:33.980Z,100.00
2022-09-21T22:22:36.218Z,100.00
2022-09-21T22:27:38.442Z,100.00
2022-09-21T22:32:40.480Z,100.00
2022-09-21T22:37:42.685Z,100.00
2022-09-21T22:42:47.472Z,100.00
2022-09-21T22:47:52.665Z,100.00
2022-09-21T22:52:54.880Z,100.00
2022-09-21T22:57:56.971Z,100.00
2022-09-21T23:02:59.058Z,100.00
2022-09-21T23:08:01.473Z,100.00
2022-09-21T23:13:03.734Z,100.00
2022-09-21T23:18:05.800Z,100.00
2022-09-21T23:23:07.841Z,100.00
2022-09-21T23:28:10.065Z,100.00
2022-09-21T23:33:12.958Z,100.00
2022-09-21T23:38:15.186Z,100.00
2022-09-21T23:43:17.373Z,100.00
2022-09-21T23:48:19.574Z,100.00
2022-09-21T23:53:22.520Z,100.00
2022-09-21T23:58:26.368Z,100.00
